createdAt,value
2018-05-10T00:00:16.810Z,0
2018-05-10T00:10:17.844Z,0
2018-05-10T00:20:16.857Z,0
2018-05-10T00:30:17.841Z,0
2018-05-10T00:40:16.865Z,0
2018-05-10T00:50:17.760Z,0
2018-05-10T01:00:16.825Z,0
2018-05-10T01:10:16.821Z,0
2018-05-10T01:20:16.885Z,0
2018-05-10T01:30:16.936Z,0
2018-05-10T01:40:16.859Z,0
2018-05-10T01:50:16.832Z,0
2018-05-10T02:00:16.830Z,0
2018-05-10T02:10:16.869Z,0
2018-05-10T02:20:17.831Z,0
2018-05-10T02:30:16.825Z,0
2018-05-10T02:40:16.845Z,0
2018-05-10T02:50:16.834Z,0
2018-05-10T03:00:27.403Z,0
2018-05-10T03:10:17.838Z,0
2018-05-10T03:20:16.841Z,0
2018-05-10T03:30:16.815Z,0
2018-05-10T03:40:16.864Z,0
2018-05-10T03:50:26.423Z,5
2018-05-10T04:10:40.034Z,20
2018-05-10T04:20:37.645Z,25
2018-05-10T04:30:16.862Z,45
2018-05-10T04:40:25.235Z,70
2018-05-10T04:50:16.828Z,60
2018-05-10T05:10:16.830Z,45
2018-05-10T05:20:21.131Z,55
2018-05-10T05:40:18.893Z,45
2018-05-10T06:10:16.797Z,40
2018-05-10T06:20:16.840Z,85
2018-05-10T06:30:20.672Z,120
2018-05-10T06:40:41.990Z,130
2018-05-10T06:50:16.873Z,245
2018-05-10T07:00:41.337Z,330
2018-05-10T07:10:28.436Z,215
2018-05-10T07:20:16.889Z,170
2018-05-10T07:30:16.857Z,170
2018-05-10T07:40:16.934Z,230
2018-05-10T07:50:22.045Z,265
2018-05-10T08:00:16.873Z,275
2018-05-10T08:10:44.205Z,335
2018-05-10T08:20:16.865Z,310
2018-05-10T08:40:43.971Z,310
2018-05-10T09:00:28.381Z,310
2018-05-10T09:30:31.389Z,300
2018-05-10T09:40:33.924Z,180
2018-05-10T09:50:22.209Z,85
2018-05-10T10:10:24.030Z,100
2018-05-10T10:20:35.334Z,80
2018-05-10T10:30:25.310Z,120
2018-05-10T10:50:38.175Z,100
2018-05-10T11:00:17.960Z,85
2018-05-10T11:30:17.689Z,75
2018-05-10T12:40:18.365Z,105
2018-05-10T12:50:22.990Z,75
2018-05-10T13:00:17.690Z,55
2018-05-10T13:10:16.968Z,45
2018-05-10T13:20:17.070Z,30
2018-05-10T13:30:20.548Z,30
2018-05-10T13:40:17.753Z,40
2018-05-10T13:50:17.122Z,30
2018-05-10T14:00:17.228Z,35
2018-05-10T14:10:17.096Z,55
2018-05-10T14:20:17.148Z,75
2018-05-10T14:30:17.153Z,70
2018-05-10T14:40:17.090Z,70
2018-05-10T14:50:17.064Z,60
2018-05-10T15:00:16.877Z,60
2018-05-10T15:10:17.049Z,45
2018-05-10T15:20:16.915Z,65
2018-05-10T15:30:16.963Z,75
2018-05-10T15:40:17.048Z,95
2018-05-10T15:50:17.046Z,115
2018-05-10T16:00:17.006Z,65
2018-05-10T16:10:17.092Z,95
2018-05-10T16:20:16.998Z,55
2018-05-10T16:30:18.102Z,45
2018-05-10T16:40:18.110Z,65
2018-05-10T16:50:17.129Z,55
2018-05-10T17:00:17.138Z,30
2018-05-10T17:10:17.161Z,20
2018-05-10T17:20:16.983Z,15
2018-05-10T17:30:17.443Z,5
2018-05-10T17:40:17.028Z,5
2018-05-10T17:50:17.081Z,5
2018-05-10T18:00:17.041Z,5
2018-05-10T18:10:17.002Z,0
2018-05-10T18:20:16.892Z,5
2018-05-10T18:30:18.069Z,5
2018-05-10T18:40:16.879Z,5
2018-05-10T18:50:16.851Z,5
2018-05-10T19:00:16.891Z,0
2018-05-10T19:10:17.021Z,0
2018-05-10T19:20:16.970Z,0
2018-05-10T19:30:16.968Z,0
2018-05-10T19:40:16.967Z,0
2018-05-10T19:50:16.919Z,0
2018-05-10T20:00:17.335Z,0
2018-05-10T20:10:16.955Z,0
2018-05-10T20:20:16.918Z,0
2018-05-10T20:30:17.421Z,0
2018-05-10T20:40:16.965Z,0
2018-05-10T20:50:21.011Z,0
2018-05-10T21:00:16.887Z,0
2018-05-10T21:10:16.955Z,0
2018-05-10T21:20:21.686Z,0
2018-05-10T21:30:16.931Z,0
2018-05-10T21:40:16.857Z,0
2018-05-10T21:50:16.853Z,0
2018-05-10T22:00:16.912Z,0
2018-05-10T22:10:17.050Z,0
2018-05-10T22:20:17.031Z,0
2018-05-10T22:30:16.968Z,0
2018-05-10T22:40:17.101Z,0
2018-05-10T22:50:16.902Z,0
2018-05-10T23:00:17.003Z,0
2018-05-10T23:10:16.987Z,0
2018-05-10T23:20:17.076Z,0
2018-05-10T23:30:17.027Z,0
2018-05-10T23:40:16.888Z,0
2018-05-10T23:50:16.930Z,0
